Cheyenne, WY

7:48 PM MST on November 26, 2014 (GMT -0700)
Cheyenne | Change Station
CLOSE
Current Station
Personal Weather Station
Location: Cheyenne, WY
Elevation: 6138 ft
Nearby Weather Stations

Elev 6138 ft 41.15 °N, 104.82 °W | Updated 16 seconds ago

Scattered Clouds
Scattered Clouds
24.4 °F
Feels Like 15 °F
N
9.0
Wind Variable Wind from SSW
Gusts 13.0 mph

Today
High -- | Low -- °F
--% Chance of Precip.
Yesterday
High -- | Low -- °F
Precip. -- in
6:59 AM 4:33 PM
Waxing Crescent, 25% visible
Pressure 30.32 in
Visibility 10.0 miles
Clouds Scattered Clouds 6500 ft
Windchill 15 °F
Dew Point 20 °F
Humidity 84%
Rainfall 0.00 in
Snow Depth Not available.
UV 0 out of 12
Pollen .10 out of 12
Air Quality Not available.
Flu Activity Not available.
METAR KFEW 270156Z AUTO 20010KT 10SM SCT065 M04/M05 A3016 RMK AO2 SLP268 T10371055

More Conditions Fewer Conditions

Pressure 30.32 in
Visibility 10.0 miles
Clouds Scattered Clouds 6500 ft
Windchill 15 °F
Dew Point 20 °F
Humidity 84%
Rainfall 0.00 in
Snow Depth Not available.
UV 0 out of 12
Pollen .10 out of 12
Air Quality Not available.
Flu Activity Not available.
METAR KFEW 270156Z AUTO 20010KT 10SM SCT065 M04/M05 A3016 RMK AO2 SLP268 T10371055

More Conditions Fewer Conditions

10-Day Weather Forecast

Almanac

Astronomy

Nov. 26, 2014 Rise Set
Actual Time
Civil Twilight
Nautical Twilight
Astronomical Twilight
Moon
Length of Visible Light
Length of Day
Tomorrow will be .
, % of the Moon is Illuminated

Today's Extremes

State Highs State Lows

Community

WunderPhotos

Upload Photos

1,773,949 photos uploaded!

WunderBlogs® & News

Nearby

Air Quality

  Air Quality AQ Index Pollutant
Not available.

Snow Depth

Station Depth Elevation

Earthquake Activity

City Distance Mag. Time & Date
Minimum magnitude displayed is 2.5.

Coastal Water Temperatures

Place Temperature

Nearby Weather Stations